Daily Tabular Data
[Select Refresh to Update]


6/15/19
Time         Wind Dir   Wind Spd  Wind Gust     Hum In   Humidity    Temp In       Temp  Raw Barom   Tot Rain Wind Chill Heat Ix In Heat Index  Dew Point  DailyRain   HourRain   RainRate
                            mph        mph          %          %         F         F         in         in         F         F         F         F         in         in      in/hr
12:00am           111          2          4         49         84       76.4       62.1      29.09      18.97       62.1       77.1       66.9       57.2       0.00       0.00      0.000
12:30am           114          4          6         50         85       76.3       61.7      29.09      18.97       61.7       77.1       66.6       57.2       0.00       0.00      0.000
1:00am             96          0          7         50         85       76.1       61.3      29.09      18.97       61.3       76.9       66.2       56.8       0.00       0.00      0.000
1:30am            105          2          8         50         85       75.9       61.1      29.09      18.97       61.1       76.7       66.0       56.6       0.00       0.00      0.000
2:00am            116          1          7         50         86       75.7       60.9      29.08      18.97       60.9       76.5       66.0       56.7       0.00       0.00      0.000
2:30am             69          0          7         50         87       75.5       60.5      29.08      18.97       60.5       76.3       65.7       56.6       0.00       0.00      0.000
3:00am            192          0          6         50         87       75.3       60.5      29.07      18.97       60.5       76.1       65.7       56.6       0.00       0.00      0.000
3:30am            110          4          7         50         87       75.2       60.1      29.08      18.97       60.1       76.0       65.3       56.2       0.00       0.00      0.000
4:00am             53          1          9         50         88       75.0       59.7      29.08      18.97       59.7       75.8       65.0       56.1       0.00       0.00      0.000
4:30am             66          1          7         50         88       74.9       59.7      29.08      18.97       59.7       75.7       65.0       56.1       0.00       0.00      0.000
5:00am             68          0          4         50         88       74.7       59.7      29.08      18.97       59.7       75.5       65.0       56.1       0.00       0.00      0.000
5:30am             68          2          4         51         89       74.7       60.1      29.09      18.97       60.1       75.6       65.6       56.9       0.00       0.00      0.000
6:00am             63          2          4         51         91       74.7       59.4      29.10      18.97       59.4       75.6       65.2       56.8       0.00       0.00      0.000
6:30am             61          1          4         51         92       74.5       59.4      29.10      18.97       59.4       75.4       65.3       57.1       0.00       0.00      0.000
7:00am             63          0          7         51         91       74.5       59.8      29.11      18.97       59.8       75.4       65.6       57.2       0.00       0.00      0.000
7:30am             62          0          4         51         89       74.4       60.5      29.11      18.97       60.5       75.3       66.0       57.2       0.00       0.00      0.000
8:00am            351          0          6         51         86       74.3       61.3      29.11      18.97       61.3       75.2       66.4       57.1       0.00       0.00      0.000
8:30am             63          1          7         51         83       74.5       62.2      29.12      18.97       62.2       75.4       66.8       57.0       0.00       0.00      0.000
9:00am            112          3          6         51         81       74.7       63.3      29.12      18.97       63.3       75.6       67.7       57.4       0.00       0.00      0.000
9:30am            175          0          6         50         81       74.9       64.0      29.11      18.97       64.0       75.7       68.4       58.1       0.00       0.00      0.000
10:00am            91          0          5         50         79       75.1       64.9      29.11      18.97       64.9       75.9       69.0       58.2       0.00       0.00      0.000
10:30am           240          1          4         50         77       75.4       65.7      29.11      18.97       65.7       76.2       69.5       58.3       0.00       0.00      0.000
11:00am           258          0          6         50         74       75.8       67.3      29.11      18.97       67.3       76.6       70.7       58.7       0.00       0.00      0.000
11:30am           206          1          5         49         72       76.4       68.8      29.10      18.97       68.8       77.1       72.0       59.4       0.00       0.00      0.000
12:00pm           254          0          4         49         68       76.9       71.2      29.10      18.97       71.2       77.6       73.9       60.1       0.00       0.00      0.000
12:30pm           239          2          8         49         63       77.4       74.2      29.09      18.97       74.2       78.1       76.3       60.8       0.00       0.00      0.000
1:00pm            261          0         12         49         62       77.8       73.6      29.08      18.97       73.6       78.5       75.6       59.8       0.00       0.00      0.000
1:30pm            200          3         13         49         62       78.1       74.4      29.08      18.97       74.4       78.8       76.4       60.5       0.00       0.00      0.000
2:00pm            223          1         12         49         60       78.5       75.0      29.07      18.97       75.0       79.2       76.8       60.2       0.00       0.00      0.000
2:30pm            217          2         10         49         60       79.0       76.8      29.07      18.97       76.8       79.7       78.6       61.9       0.00       0.00      0.000
3:00pm            238          4         10         49         60       79.5       76.3      29.06      18.97       76.3       80.2       78.1       61.4       0.00       0.00      0.000
3:30pm            242          5         12         47         59       79.2       76.5      29.06      18.97       76.5       79.7       78.2       61.1       0.00       0.00      0.000
4:00pm            233          0         11         47         60       77.2       76.6      29.06      18.97       76.6       77.7       78.4       61.7       0.00       0.00      0.000
4:30pm            229          3         14         46         61       75.7       75.5      29.05      18.97       75.5       76.1       77.4       61.1       0.00       0.00      0.000
5:00pm            214          5         11         46         65       75.6       74.9      29.05      18.97       74.9       76.0       77.3       62.4       0.00       0.00      0.000
5:30pm            219          2         10         45         62       78.1       75.6      29.04      18.97       75.6       78.4       77.6       61.7       0.00       0.00      0.000
6:00pm            247          5         10         45         65       79.4       73.9      29.04      18.97       73.9       79.7       76.3       61.4       0.00       0.00      0.000
6:30pm            219          5         10         45         70       80.0       72.4      29.05      18.97       72.4       80.3       75.4       62.1       0.00       0.00      0.000
7:00pm            238          3          7         50         76       79.2       69.1      29.05      18.97       69.1       80.0       72.8       61.2       0.00       0.00      0.000
7:30pm            207          1          6         51         82       77.9       66.7      29.06      18.97       66.7       78.8       71.2       61.0       0.00       0.00      0.000
8:00pm            227          0          3         52         81       77.3       66.6      29.06      18.97       66.6       78.3       71.0       60.6       0.00       0.00      0.000
8:30pm            234          0          2         52         83       77.0       66.1      29.06      18.97       66.1       78.0       70.7       60.8       0.00       0.00      0.000
9:00pm            243          1          5         53         84       76.5       65.1      29.07      18.97       65.1       77.6       69.9       60.2       0.00       0.00      0.000
9:30pm            217          0          4         53         85       76.7       65.0      29.08      18.97       65.0       77.8       69.9       60.4       0.00       0.00      0.000
10:00pm           248          3          6         52         86       76.9       64.3      29.08      18.97       64.3       77.9       69.4       60.0       0.00       0.00      0.000
10:30pm           248          0          5         52         87       76.8       64.1      29.08      18.97       64.1       77.8       69.3       60.2       0.00       0.00      0.000
11:00pm           245          0          5         53         88       76.8       63.9      29.08      18.97       63.9       77.9       69.2       60.3       0.00       0.00      0.000
11:30pm           182          2          7         53         88       76.7       63.8      29.08      18.97       63.8       77.8       69.1       60.2       0.00       0.00      0.000